createdAt,value
2023-01-06T00:01:22.243Z,100433.81
2023-01-06T00:03:51.986Z,100438.13
2023-01-06T00:06:27.671Z,100444.16
2023-01-06T00:09:01.282Z,100443.31
2023-01-06T00:11:29.048Z,100450.19
2023-01-06T00:13:57.276Z,100452.78
2023-01-06T00:16:25.356Z,100453.63
2023-01-06T00:18:58.556Z,100464.81
2023-01-06T00:21:26.604Z,100470.84
2023-01-06T00:23:55.175Z,100471.66
2023-01-06T00:26:23.375Z,100467.38
2023-01-06T00:28:55.793Z,100480.28
2023-01-06T00:31:24.084Z,100485.47
2023-01-06T00:33:52.528Z,100495.78
2023-01-06T00:36:21.787Z,100500.94
2023-01-06T00:38:51.334Z,100494.06
2023-01-06T00:41:38.928Z,100504.41
2023-01-06T00:44:08.088Z,100511.31
2023-01-06T00:46:36.140Z,100518.16
2023-01-06T00:49:07.503Z,100523.34
2023-01-06T00:51:39.434Z,100538.84
2023-01-06T00:54:12.583Z,100542.25
2023-01-06T00:56:42.663Z,100534.53
2023-01-06T00:59:12.515Z,100541.41
2023-01-06T01:01:41.062Z,100549.13
2023-01-06T01:04:10.363Z,100552.56
2023-01-06T01:06:38.987Z,100550.88
2023-01-06T01:09:07.844Z,100559.53
2023-01-06T01:11:54.840Z,100555.19
2023-01-06T01:14:22.619Z,100565.53
2023-01-06T01:16:50.674Z,100562.03
2023-01-06T01:19:19.584Z,100557.78
2023-01-06T01:21:47.949Z,100570.66
2023-01-06T01:24:15.979Z,100574.97
2023-01-06T01:26:44.583Z,100586.97
2023-01-06T01:29:16.591Z,100582.75
2023-01-06T01:31:45.098Z,100586.16
2023-01-06T01:34:15.431Z,100593.84
2023-01-06T01:36:45.620Z,100602.50
2023-01-06T01:39:15.627Z,100606.78
2023-01-06T01:41:44.001Z,100625.63
2023-01-06T01:44:54.305Z,100623.09
2023-01-06T01:47:22.331Z,100625.66
2023-01-06T01:49:54.359Z,100628.22
2023-01-06T01:52:23.913Z,100631.59
2023-01-06T01:54:55.179Z,100648.81
2023-01-06T01:57:30.191Z,100647.13
2023-01-06T01:59:59.198Z,100641.13
2023-01-06T02:02:30.463Z,100634.28
2023-01-06T02:04:59.710Z,100654.09
2023-01-06T02:07:28.176Z,100658.34
2023-01-06T02:10:03.937Z,100669.59
2023-01-06T02:12:34.154Z,100681.47
2023-01-06T02:15:02.931Z,100671.13
2023-01-06T02:17:42.418Z,100685.03
2023-01-06T02:20:41.316Z,100679.91
2023-01-06T02:23:24.152Z,100688.47
2023-01-06T02:26:23.205Z,100700.34
2023-01-06T02:29:21.779Z,100704.66
2023-01-06T02:32:15.337Z,100711.50
2023-01-06T02:34:52.321Z,100710.53
2023-01-06T02:37:24.145Z,100719.25
2023-01-06T02:40:14.533Z,100738.22
2023-01-06T02:43:00.729Z,100729.50
2023-01-06T02:45:44.629Z,100724.28
2023-01-06T02:48:30.718Z,100749.38
2023-01-06T02:51:18.349Z,100751.88
2023-01-06T02:54:06.712Z,100761.25
2023-01-06T02:56:39.965Z,100754.41
2023-01-06T02:59:19.684Z,100743.22
2023-01-06T03:01:50.169Z,100764.69
2023-01-06T03:04:24.857Z,100767.44
2023-01-06T03:06:58.477Z,100763.09
2023-01-06T03:09:37.436Z,100771.63
2023-01-06T03:12:20.038Z,100772.38
2023-01-06T03:14:52.925Z,100779.31
2023-01-06T03:17:21.189Z,100782.75
2023-01-06T03:19:48.893Z,100780.13
2023-01-06T03:22:18.419Z,100789.66
2023-01-06T03:24:46.649Z,100795.75
2023-01-06T03:27:19.996Z,100797.53
2023-01-06T03:29:48.426Z,100803.44
2023-01-06T03:32:25.029Z,100796.53
2023-01-06T03:34:55.741Z,100793.88
2023-01-06T03:37:51.824Z,100792.38
2023-01-06T03:40:40.995Z,100794.97
2023-01-06T03:43:35.810Z,100791.41
2023-01-06T03:46:29.403Z,100805.31
2023-01-06T03:49:07.513Z,100812.19
2023-01-06T03:52:13.524Z,100813.88
2023-01-06T03:54:48.055Z,100818.16
2023-01-06T03:57:27.647Z,100813.84
2023-01-06T04:00:14.770Z,100816.41
2023-01-06T04:02:48.158Z,100831.75
2023-01-06T04:05:23.354Z,100826.63
2023-01-06T04:07:52.384Z,100834.59
2023-01-06T04:10:23.537Z,100839.66
2023-01-06T04:12:55.143Z,100839.59
2023-01-06T04:15:31.107Z,100850.72
2023-01-06T04:18:00.397Z,100857.59
2023-01-06T04:20:31.804Z,100856.72
2023-01-06T04:23:16.568Z,100865.38
2023-01-06T04:25:45.519Z,100855.91
2023-01-06T04:28:31.293Z,100858.44
2023-01-06T04:31:01.366Z,100856.75
2023-01-06T04:33:30.527Z,100846.56
2023-01-06T04:36:02.265Z,100849.28
2023-01-06T04:38:30.223Z,100837.91
2023-01-06T04:41:00.514Z,100845.53
2023-01-06T04:43:28.226Z,100846.50
2023-01-06T04:45:59.399Z,100854.28
2023-01-06T04:48:27.200Z,100844.81
2023-01-06T04:51:07.082Z,100840.44
2023-01-06T04:53:40.020Z,100846.47
2023-01-06T04:56:11.667Z,100846.38
2023-01-06T04:58:39.732Z,100846.56
2023-01-06T05:01:10.723Z,100841.41
2023-01-06T05:03:39.396Z,100844.03
2023-01-06T05:06:10.681Z,100849.28
2023-01-06T05:08:40.292Z,100848.28
2023-01-06T05:11:11.744Z,100850.66
2023-01-06T05:13:40.444Z,100860.13
2023-01-06T05:16:10.728Z,100870.34
2023-01-06T05:18:38.746Z,100865.19
2023-01-06T05:21:07.297Z,100861.72
2023-01-06T05:23:36.276Z,100863.38
2023-01-06T05:26:04.793Z,100866.13
2023-01-06T05:28:32.830Z,100861.16
2023-01-06T05:31:02.881Z,100870.75
2023-01-06T05:33:32.458Z,100878.31
2023-01-06T05:36:02.146Z,100886.13
2023-01-06T05:38:30.025Z,100889.47
2023-01-06T05:40:58.055Z,100883.38
2023-01-06T05:43:27.136Z,100893.72
2023-01-06T05:45:56.525Z,100891.19
2023-01-06T05:48:28.659Z,100886.84
2023-01-06T05:51:07.947Z,100887.47
2023-01-06T05:53:38.011Z,100889.19
2023-01-06T05:56:08.752Z,100902.16
2023-01-06T05:58:36.883Z,100892.91
2023-01-06T06:01:05.469Z,100898.88
2023-01-06T06:03:34.027Z,100903.28
2023-01-06T06:06:06.418Z,100916.03
2023-01-06T06:08:34.431Z,100916.56
2023-01-06T06:11:07.421Z,100926.94
2023-01-06T06:13:35.108Z,100928.28
2023-01-06T06:16:10.354Z,100926.50
2023-01-06T06:18:44.781Z,100928.19
2023-01-06T06:21:15.301Z,100931.66
2023-01-06T06:23:43.758Z,100948.72
2023-01-06T06:26:12.526Z,100944.50
2023-01-06T06:28:40.821Z,100943.50
2023-01-06T06:31:15.356Z,100949.59
2023-01-06T06:33:43.572Z,100951.22
2023-01-06T06:36:12.283Z,100959.88
2023-01-06T06:38:40.077Z,100962.53
2023-01-06T06:41:08.197Z,100973.47
2023-01-06T06:43:35.985Z,100973.47
2023-01-06T06:46:04.295Z,100984.50
2023-01-06T06:48:32.210Z,100982.13
2023-01-06T06:51:02.797Z,100988.16
2023-01-06T06:53:30.508Z,100999.88
2023-01-06T06:55:58.805Z,100988.81
2023-01-06T06:58:26.869Z,100994.88
2023-01-06T07:00:55.027Z,101009.38
2023-01-06T07:03:23.155Z,101004.88
2023-01-06T07:05:52.844Z,101008.59
2023-01-06T07:08:20.644Z,101013.75
2023-01-06T07:10:48.648Z,101015.22
2023-01-06T07:13:16.376Z,101016.22
2023-01-06T07:15:44.588Z,101008.41
2023-01-06T07:18:12.637Z,101013.69
2023-01-06T07:20:40.637Z,101013.72
2023-01-06T07:23:08.408Z,101023.84
2023-01-06T07:25:36.472Z,101029.94
2023-01-06T07:28:08.868Z,101029.31
2023-01-06T07:30:37.640Z,101019.84
2023-01-06T07:33:05.569Z,101025.06
2023-01-06T07:35:33.578Z,101027.81
2023-01-06T07:38:05.974Z,101022.72
2023-01-06T07:40:34.659Z,101018.41
2023-01-06T07:43:07.196Z,101021.22
2023-01-06T07:45:35.601Z,101027.44
2023-01-06T07:48:03.778Z,101034.94
2023-01-06T07:50:32.728Z,101036.69
2023-01-06T07:53:02.387Z,101031.78
2023-01-06T07:55:30.554Z,101040.19
2023-01-06T07:57:58.921Z,101038.84
2023-01-06T08:00:27.009Z,101043.72
2023-01-06T08:02:55.367Z,101048.00
2023-01-06T08:05:23.913Z,101047.13
2023-01-06T08:07:51.740Z,101036.38
2023-01-06T08:10:19.796Z,101040.63
2023-01-06T08:12:47.557Z,101037.63
2023-01-06T08:15:15.788Z,101039.41
2023-01-06T08:17:43.557Z,101030.66
2023-01-06T08:20:11.647Z,101036.38
2023-01-06T08:22:39.376Z,101025.31
2023-01-06T08:25:07.912Z,101027.75
2023-01-06T08:27:35.967Z,101026.97
2023-01-06T08:30:04.456Z,101038.00
2023-01-06T08:32:32.250Z,101051.91
2023-01-06T08:35:00.176Z,101055.47
2023-01-06T08:37:29.180Z,101064.88
2023-01-06T08:39:57.820Z,101053.63
2023-01-06T08:42:26.717Z,101054.69
2023-01-06T08:44:54.671Z,101050.31
2023-01-06T08:47:22.468Z,101065.25
2023-01-06T08:49:50.493Z,101059.88
2023-01-06T08:52:18.229Z,101064.19
2023-01-06T08:54:46.317Z,101071.00
2023-01-06T08:57:16.012Z,101071.09
2023-01-06T08:59:44.134Z,101072.00
2023-01-06T09:02:12.027Z,101073.09
2023-01-06T09:04:40.338Z,101079.88
2023-01-06T09:07:08.244Z,101071.19
2023-01-06T09:09:36.374Z,101070.75
2023-01-06T09:12:04.328Z,101059.50
2023-01-06T09:14:32.864Z,101067.44
2023-01-06T09:17:00.737Z,101062.16
2023-01-06T09:19:28.686Z,101065.59
2023-01-06T09:21:56.388Z,101051.69
2023-01-06T09:24:24.448Z,101056.13
2023-01-06T09:26:52.181Z,101062.25
2023-01-06T09:29:21.450Z,101058.59
2023-01-06T09:31:49.135Z,101056.25
2023-01-06T09:34:17.077Z,101055.31
2023-01-06T09:36:45.076Z,101048.56
2023-01-06T09:39:13.084Z,101065.09
2023-01-06T09:41:46.942Z,101058.88
2023-01-06T09:44:29.705Z,101049.22
2023-01-06T09:46:59.318Z,101043.41
2023-01-06T09:49:42.507Z,101054.63
2023-01-06T09:52:26.003Z,101053.66
2023-01-06T09:55:18.314Z,101050.13
2023-01-06T09:57:52.284Z,101052.00
2023-01-06T10:00:41.297Z,101052.06
2023-01-06T10:03:18.099Z,101050.25
2023-01-06T10:05:52.121Z,101050.19
2023-01-06T10:08:26.086Z,101046.66
2023-01-06T10:11:14.917Z,101046.81
2023-01-06T10:14:07.529Z,101038.31
2023-01-06T10:17:00.241Z,101033.16
2023-01-06T10:19:36.406Z,101038.97
2023-01-06T10:22:18.211Z,101034.69
2023-01-06T10:25:12.687Z,101036.31
2023-01-06T10:27:47.354Z,101026.13
2023-01-06T10:30:18.698Z,101028.03
2023-01-06T10:32:49.468Z,101027.03
2023-01-06T10:35:21.119Z,101021.69
2023-01-06T10:37:52.754Z,101013.25
2023-01-06T10:40:30.484Z,101010.56
2023-01-06T10:43:11.555Z,101009.66
2023-01-06T10:45:47.728Z,100995.84
2023-01-06T10:48:26.700Z,100999.34
2023-01-06T10:50:57.145Z,101005.50
2023-01-06T10:53:26.482Z,101003.75
2023-01-06T10:55:58.850Z,101003.84
2023-01-06T10:58:35.963Z,100994.38
2023-01-06T11:01:23.254Z,101000.38
2023-01-06T11:04:12.220Z,101005.75
2023-01-06T11:07:02.066Z,101006.56
2023-01-06T11:09:48.322Z,101010.72
2023-01-06T11:12:23.714Z,101002.13
2023-01-06T11:15:02.527Z,100990.09
2023-01-06T11:17:31.476Z,100991.75
2023-01-06T11:20:25.755Z,100986.63
2023-01-06T11:22:53.678Z,100982.44
2023-01-06T11:25:21.773Z,100987.69
2023-01-06T11:28:19.332Z,100987.50
2023-01-06T11:30:52.882Z,100978.19
2023-01-06T11:33:24.750Z,100981.50
2023-01-06T11:35:54.238Z,100982.28
2023-01-06T11:38:23.325Z,100974.56
2023-01-06T11:40:53.974Z,100968.56
2023-01-06T11:43:32.685Z,100967.69
2023-01-06T11:46:04.385Z,100970.44
2023-01-06T11:48:43.175Z,100960.84
2023-01-06T11:51:11.896Z,100963.56
2023-01-06T11:53:54.418Z,100962.56
2023-01-06T11:56:22.896Z,100958.47
2023-01-06T11:59:07.780Z,100947.16
2023-01-06T12:01:59.505Z,100951.31
2023-01-06T12:04:46.568Z,100947.91
2023-01-06T12:07:20.669Z,100949.63
2023-01-06T12:09:49.937Z,100954.88
2023-01-06T12:12:23.068Z,100954.06
2023-01-06T12:14:50.803Z,100951.34
2023-01-06T12:17:57.274Z,100957.47
2023-01-06T12:20:32.750Z,100955.78
2023-01-06T12:23:12.911Z,100951.50
2023-01-06T12:25:49.073Z,100950.59
2023-01-06T12:28:30.013Z,100944.56
2023-01-06T12:31:27.767Z,100931.72
2023-01-06T12:33:58.561Z,100928.22
2023-01-06T12:36:47.628Z,100925.66
2023-01-06T12:39:34.028Z,100938.44
2023-01-06T12:42:10.723Z,100940.91
2023-01-06T12:45:01.718Z,100939.34
2023-01-06T12:47:48.320Z,100929.81
2023-01-06T12:50:18.972Z,100934.97
2023-01-06T12:53:20.439Z,100933.19
2023-01-06T12:56:08.180Z,100926.44
2023-01-06T12:58:54.862Z,100921.28
2023-01-06T13:01:37.869Z,100924.63
2023-01-06T13:04:39.734Z,100924.47
2023-01-06T13:07:44.532Z,100924.56
2023-01-06T13:10:40.430Z,100928.09
2023-01-06T13:13:38.734Z,100938.47
2023-01-06T13:16:20.634Z,100931.50
2023-01-06T13:19:02.060Z,100933.94
2023-01-06T13:21:31.802Z,100938.13
2023-01-06T13:23:59.710Z,100936.47
2023-01-06T13:26:45.823Z,100933.25
2023-01-06T13:29:32.237Z,100934.06
2023-01-06T13:32:36.087Z,100931.50
2023-01-06T13:35:12.674Z,100929.56
2023-01-06T13:37:41.906Z,100920.13
2023-01-06T13:40:21.216Z,100920.88
2023-01-06T13:42:58.171Z,100917.44
2023-01-06T13:45:29.528Z,100924.38
2023-01-06T13:47:59.406Z,100927.59
2023-01-06T13:50:28.696Z,100918.06
2023-01-06T13:52:56.595Z,100914.78
2023-01-06T13:55:35.393Z,100906.91
2023-01-06T13:58:25.740Z,100897.63
2023-01-06T14:01:13.898Z,100896.59
2023-01-06T14:03:43.097Z,100885.59
2023-01-06T14:06:13.011Z,100889.88
2023-01-06T14:08:51.771Z,100883.78
2023-01-06T14:11:25.378Z,100875.94
2023-01-06T14:13:56.454Z,100879.41
2023-01-06T14:16:41.106Z,100866.38
2023-01-06T14:19:18.106Z,100861.19
2023-01-06T14:21:50.639Z,100870.78
2023-01-06T14:24:35.933Z,100862.25
2023-01-06T14:27:08.357Z,100865.81
2023-01-06T14:29:46.410Z,100856.38
2023-01-06T14:32:17.598Z,100870.03
2023-01-06T14:34:52.528Z,100867.44
2023-01-06T14:37:28.680Z,100865.56
2023-01-06T14:39:59.272Z,100867.97
2023-01-06T14:42:36.929Z,100868.94
2023-01-06T14:45:23.787Z,100870.81
2023-01-06T14:47:59.832Z,100865.66
2023-01-06T14:50:42.038Z,100870.84
2023-01-06T14:53:25.078Z,100863.78
2023-01-06T14:55:53.328Z,100872.28
2023-01-06T14:58:39.194Z,100879.34
2023-01-06T15:01:20.347Z,100880.06
2023-01-06T15:03:56.685Z,100885.22
2023-01-06T15:06:26.715Z,100887.84
2023-01-06T15:08:57.690Z,100892.28
2023-01-06T15:11:33.541Z,100887.00
2023-01-06T15:14:01.569Z,100887.94
2023-01-06T15:16:39.321Z,100876.59
2023-01-06T15:19:15.174Z,100876.56
2023-01-06T15:21:45.772Z,100864.63
2023-01-06T15:24:32.671Z,100866.50
2023-01-06T15:27:12.635Z,100859.63
2023-01-06T15:29:58.510Z,100856.19
2023-01-06T15:32:27.760Z,100853.41
2023-01-06T15:34:58.191Z,100843.09
2023-01-06T15:37:30.833Z,100831.00
2023-01-06T15:39:58.944Z,100831.09
2023-01-06T15:42:27.579Z,100835.28
2023-01-06T15:45:00.514Z,100831.91
2023-01-06T15:47:39.813Z,100819.63
2023-01-06T15:50:16.015Z,100828.22
2023-01-06T15:53:04.150Z,100819.78
2023-01-06T15:55:43.084Z,100821.63
2023-01-06T15:58:30.603Z,100830.16
2023-01-06T16:01:11.424Z,100825.78
2023-01-06T16:03:39.762Z,100829.25
2023-01-06T16:06:13.627Z,100830.97
2023-01-06T16:08:42.906Z,100827.44
2023-01-06T16:11:17.197Z,100823.97
2023-01-06T16:13:58.735Z,100810.28
2023-01-06T16:16:31.563Z,100807.72
2023-01-06T16:19:07.461Z,100817.03
2023-01-06T16:21:35.704Z,100808.31
2023-01-06T16:24:17.640Z,100808.28
2023-01-06T16:26:58.553Z,100802.47
2023-01-06T16:29:29.596Z,100807.44
2023-01-06T16:32:01.223Z,100801.56
2023-01-06T16:34:32.333Z,100805.00
2023-01-06T16:37:01.202Z,100799.84
2023-01-06T16:39:29.216Z,100799.88
2023-01-06T16:42:00.341Z,100786.16
2023-01-06T16:44:34.369Z,100774.06
2023-01-06T16:47:02.373Z,100777.50
2023-01-06T16:49:30.899Z,100767.84
2023-01-06T16:51:59.364Z,100764.63
2023-01-06T16:54:27.355Z,100769.72
2023-01-06T16:56:55.010Z,100767.00
2023-01-06T16:59:23.735Z,100759.25
2023-01-06T17:01:51.698Z,100755.84
2023-01-06T17:04:19.849Z,100754.09
2023-01-06T17:06:47.695Z,100742.94
2023-01-06T17:09:23.377Z,100753.28
2023-01-06T17:11:52.897Z,100753.06
2023-01-06T17:14:23.029Z,100754.88
2023-01-06T17:16:51.257Z,100763.31
2023-01-06T17:19:40.114Z,100758.34
2023-01-06T17:22:30.991Z,100745.47
2023-01-06T17:25:08.977Z,100748.00
2023-01-06T17:27:36.742Z,100750.50
2023-01-06T17:30:15.842Z,100739.25
2023-01-06T17:32:44.914Z,100731.63
2023-01-06T17:35:29.387Z,100716.91
2023-01-06T17:38:02.581Z,100717.72
2023-01-06T17:40:38.628Z,100713.44
2023-01-06T17:43:23.872Z,100706.53
2023-01-06T17:45:52.064Z,100709.13
2023-01-06T17:48:20.316Z,100702.97
2023-01-06T17:50:54.712Z,100684.06
2023-01-06T17:54:01.744Z,100695.19
2023-01-06T17:56:29.809Z,100701.13
2023-01-06T17:59:05.167Z,100709.06
2023-01-06T18:01:35.272Z,100704.59
2023-01-06T18:04:06.623Z,100702.97
2023-01-06T18:06:38.059Z,100695.25
2023-01-06T18:09:05.787Z,100695.09
2023-01-06T18:11:42.261Z,100702.84
2023-01-06T18:14:41.952Z,100697.69
2023-01-06T18:17:25.849Z,100699.38
2023-01-06T18:19:53.816Z,100695.16
2023-01-06T18:22:25.591Z,100689.09
2023-01-06T18:25:01.547Z,100684.03
2023-01-06T18:27:34.736Z,100675.31
2023-01-06T18:30:24.148Z,100670.06
2023-01-06T18:32:52.654Z,100665.00
2023-01-06T18:35:27.779Z,100663.31
2023-01-06T18:38:00.846Z,100664.97
2023-01-06T18:40:28.637Z,100663.34
2023-01-06T18:42:56.923Z,100653.78
2023-01-06T18:45:28.584Z,100663.19
2023-01-06T18:48:16.368Z,100655.41
2023-01-06T18:50:46.160Z,100656.25
2023-01-06T18:53:14.109Z,100659.06
2023-01-06T18:55:47.158Z,100641.66
2023-01-06T18:58:17.023Z,100631.50
2023-01-06T19:00:55.708Z,100630.63
2023-01-06T19:03:31.149Z,100627.22
2023-01-06T19:06:05.010Z,100627.19
2023-01-06T19:08:35.128Z,100622.88
2023-01-06T19:11:11.747Z,100627.22
2023-01-06T19:13:39.941Z,100614.28
2023-01-06T19:16:36.831Z,100611.84
2023-01-06T19:19:13.754Z,100605.81
2023-01-06T19:21:41.715Z,100617.69
2023-01-06T19:24:38.070Z,100610.09
2023-01-06T19:27:19.877Z,100602.41
2023-01-06T19:29:47.945Z,100614.31
2023-01-06T19:32:15.892Z,100613.56
2023-01-06T19:34:43.870Z,100604.00
2023-01-06T19:37:20.841Z,100611.97
2023-01-06T19:39:54.233Z,100609.13
2023-01-06T19:42:27.644Z,100605.88
2023-01-06T19:44:58.906Z,100599.94
2023-01-06T19:47:31.506Z,100599.91
2023-01-06T19:50:16.066Z,100605.13
2023-01-06T19:52:43.850Z,100601.50
2023-01-06T19:55:17.190Z,100606.75
2023-01-06T19:57:51.051Z,100600.72
2023-01-06T20:00:25.264Z,100605.94
2023-01-06T20:02:54.180Z,100606.72
2023-01-06T20:05:22.363Z,100591.22
2023-01-06T20:07:50.145Z,100580.16
2023-01-06T20:10:18.225Z,100588.66
2023-01-06T20:12:46.341Z,100586.16
2023-01-06T20:15:14.823Z,100582.75
2023-01-06T20:17:42.793Z,100574.16
2023-01-06T20:20:11.237Z,100579.25
2023-01-06T20:22:39.097Z,100574.91
2023-01-06T20:25:07.678Z,100577.44
2023-01-06T20:27:35.942Z,100576.69
2023-01-06T20:30:05.078Z,100577.59
2023-01-06T20:32:32.750Z,100578.47
2023-01-06T20:35:00.742Z,100567.47
2023-01-06T20:37:28.495Z,100569.00
2023-01-06T20:39:56.486Z,100576.66
2023-01-06T20:42:24.294Z,100574.13
2023-01-06T20:44:52.342Z,100577.69
2023-01-06T20:47:20.056Z,100564.75
2023-01-06T20:49:48.605Z,100564.72
2023-01-06T20:52:16.351Z,100558.78
2023-01-06T20:54:44.390Z,100562.22
2023-01-06T20:57:12.200Z,100567.31
2023-01-06T20:59:40.156Z,100565.63
2023-01-06T21:02:07.935Z,100571.69
2023-01-06T21:04:36.472Z,100586.22
2023-01-06T21:07:04.211Z,100581.00
2023-01-06T21:09:32.206Z,100587.81
2023-01-06T21:11:59.889Z,100590.44
2023-01-06T21:14:28.616Z,100596.59
2023-01-06T21:16:56.408Z,100596.66
2023-01-06T21:19:24.410Z,100595.63
2023-01-06T21:21:52.118Z,100593.19
2023-01-06T21:24:20.104Z,100598.38
2023-01-06T21:26:47.827Z,100598.44
2023-01-06T21:29:15.814Z,100588.94
2023-01-06T21:31:43.986Z,100594.81
2023-01-06T21:34:11.980Z,100594.91
2023-01-06T21:36:39.732Z,100600.09
2023-01-06T21:39:09.034Z,100590.59
2023-01-06T21:41:55.689Z,100588.00
2023-01-06T21:44:24.246Z,100598.31
2023-01-06T21:46:51.903Z,100600.06
2023-01-06T21:49:19.954Z,100594.88
2023-01-06T21:51:48.901Z,100590.56
2023-01-06T21:54:16.894Z,100582.13
2023-01-06T21:56:44.701Z,100589.97
2023-01-06T21:59:12.830Z,100577.91
2023-01-06T22:01:40.641Z,100576.19
2023-01-06T22:04:08.875Z,100577.91
2023-01-06T22:06:39.098Z,100569.44
2023-01-06T22:09:09.277Z,100567.66
2023-01-06T22:11:40.111Z,100582.97
2023-01-06T22:14:10.175Z,100590.72
2023-01-06T22:16:40.090Z,100584.78
2023-01-06T22:19:11.181Z,100585.63
2023-01-06T22:21:40.393Z,100579.66
2023-01-06T22:24:10.864Z,100585.72
2023-01-06T22:26:38.714Z,100585.72
2023-01-06T22:29:08.260Z,100582.09
2023-01-06T22:31:36.921Z,100589.81
2023-01-06T22:34:06.276Z,100591.53
2023-01-06T22:36:34.085Z,100588.25
2023-01-06T22:39:02.043Z,100589.97
2023-01-06T22:41:30.006Z,100585.69
2023-01-06T22:43:57.986Z,100584.88
2023-01-06T22:46:27.433Z,100591.72
2023-01-06T22:48:55.432Z,100590.03
2023-01-06T22:51:23.353Z,100592.50
2023-01-06T22:53:52.278Z,100594.19
2023-01-06T22:56:19.982Z,100604.47
2023-01-06T22:58:48.091Z,100593.44
2023-01-06T23:01:15.845Z,100596.84
2023-01-06T23:03:44.178Z,100608.00
2023-01-06T23:06:13.701Z,100607.16
2023-01-06T23:08:58.486Z,100603.84
2023-01-06T23:11:28.733Z,100612.53
2023-01-06T23:13:58.931Z,100620.06
2023-01-06T23:16:29.013Z,100614.03
2023-01-06T23:18:57.329Z,100615.94
2023-01-06T23:21:27.385Z,100613.38
2023-01-06T23:23:55.433Z,100620.28
2023-01-06T23:26:26.469Z,100619.44
2023-01-06T23:28:55.736Z,100615.03
2023-01-06T23:31:29.432Z,100620.16
2023-01-06T23:34:02.090Z,100622.75
2023-01-06T23:36:33.400Z,100611.53
2023-01-06T23:39:03.207Z,100613.44
2023-01-06T23:41:33.717Z,100612.56
2023-01-06T23:44:02.498Z,100621.09
2023-01-06T23:46:36.774Z,100623.63
2023-01-06T23:49:06.174Z,100616.72
2023-01-06T23:51:34.327Z,100622.84
2023-01-06T23:54:04.706Z,100629.59
2023-01-06T23:56:34.007Z,100624.66
2023-01-06T23:59:04.080Z,100629.75
